createdAt,value
2022-10-06T00:00:52.827Z,1.05
2022-10-06T00:03:20.637Z,1.55
2022-10-06T00:05:49.670Z,1.30
2022-10-06T00:08:16.669Z,1.25
2022-10-06T00:10:43.384Z,1.50
2022-10-06T00:13:11.056Z,1.20
2022-10-06T00:15:37.872Z,1.42
2022-10-06T00:18:04.944Z,1.50
2022-10-06T00:20:32.462Z,1.52
2022-10-06T00:23:00.550Z,1.50
2022-10-06T00:25:27.500Z,0.67
2022-10-06T00:27:55.500Z,1.10
2022-10-06T00:30:23.918Z,1.13
2022-10-06T00:32:52.404Z,1.05
2022-10-06T00:35:19.843Z,1.00
2022-10-06T00:37:46.613Z,1.25
2022-10-06T00:40:14.738Z,1.00
2022-10-06T00:42:51.549Z,1.40
2022-10-06T00:45:22.906Z,1.02
2022-10-06T00:47:50.245Z,1.45
2022-10-06T00:50:17.483Z,1.15
2022-10-06T00:52:44.370Z,1.30
2022-10-06T00:55:11.822Z,1.83
2022-10-06T00:57:40.979Z,1.30
2022-10-06T01:00:09.551Z,1.20
2022-10-06T01:02:42.603Z,1.13
2022-10-06T01:05:14.242Z,1.67
2022-10-06T01:07:41.764Z,2.22
2022-10-06T01:10:08.924Z,1.10
2022-10-06T01:12:35.973Z,2.40
2022-10-06T01:15:05.867Z,1.10
2022-10-06T01:17:36.360Z,1.13
2022-10-06T01:20:06.541Z,2.03
2022-10-06T01:22:37.059Z,1.95
2022-10-06T01:25:07.449Z,1.75
2022-10-06T01:27:36.787Z,1.30
2022-10-06T01:30:06.977Z,1.50
2022-10-06T01:32:37.473Z,1.63
2022-10-06T01:35:06.691Z,1.50
2022-10-06T01:37:35.086Z,1.48
2022-10-06T01:40:01.883Z,1.35
2022-10-06T01:42:29.335Z,1.42
2022-10-06T01:44:56.047Z,2.10
2022-10-06T01:47:22.752Z,1.00
2022-10-06T01:49:50.051Z,1.50
2022-10-06T01:52:16.847Z,1.38
2022-10-06T01:54:44.895Z,0.90
2022-10-06T01:57:12.235Z,1.65
2022-10-06T01:59:38.953Z,1.88
2022-10-06T02:02:05.714Z,1.33
2022-10-06T02:04:33.132Z,1.30
2022-10-06T02:06:59.860Z,1.40
2022-10-06T02:09:26.579Z,2.50
2022-10-06T02:11:55.241Z,1.48
2022-10-06T02:14:21.957Z,1.87
2022-10-06T02:16:48.677Z,2.65
2022-10-06T02:19:16.080Z,1.35
2022-10-06T02:21:42.796Z,1.90
2022-10-06T02:24:09.631Z,1.40
2022-10-06T02:26:36.954Z,2.38
2022-10-06T02:29:04.986Z,1.33
2022-10-06T02:31:32.066Z,2.13
2022-10-06T02:33:59.448Z,2.15
2022-10-06T02:36:26.173Z,1.80
2022-10-06T02:38:53.400Z,1.10
2022-10-06T02:41:20.743Z,1.55
2022-10-06T02:43:47.556Z,1.67
2022-10-06T02:46:15.680Z,1.30
2022-10-06T02:48:43.155Z,1.30
2022-10-06T02:51:12.422Z,1.27
2022-10-06T02:53:39.368Z,1.23
2022-10-06T02:56:10.590Z,1.70
2022-10-06T02:58:38.307Z,2.35
2022-10-06T03:01:06.899Z,1.35
2022-10-06T03:03:35.780Z,1.70
2022-10-06T03:06:04.805Z,1.73
2022-10-06T03:11:00.597Z,1.67
2022-10-06T03:13:27.993Z,1.60
2022-10-06T03:15:54.745Z,1.55
2022-10-06T03:18:22.215Z,2.28
2022-10-06T03:20:50.396Z,1.95
2022-10-06T03:23:17.146Z,1.60
2022-10-06T03:25:44.502Z,2.28
2022-10-06T03:28:11.303Z,1.88
2022-10-06T03:30:38.043Z,2.47
2022-10-06T03:33:05.374Z,1.65
2022-10-06T03:35:32.073Z,1.27
2022-10-06T03:38:00.703Z,2.35
2022-10-06T03:40:28.022Z,1.27
2022-10-06T03:42:54.730Z,2.47
2022-10-06T03:45:21.461Z,1.83
2022-10-06T03:47:48.786Z,1.63
2022-10-06T03:50:15.634Z,1.70
2022-10-06T03:52:42.356Z,1.10
2022-10-06T03:55:11.014Z,2.20
2022-10-06T03:57:37.736Z,2.10
2022-10-06T04:00:05.678Z,1.50
2022-10-06T04:02:33.025Z,1.35
2022-10-06T04:04:59.766Z,1.85
2022-10-06T04:07:26.479Z,1.60
2022-10-06T04:09:53.828Z,1.50
2022-10-06T04:12:21.870Z,1.90
2022-10-06T04:14:48.620Z,1.45
2022-10-06T04:17:15.938Z,1.38
2022-10-06T04:19:42.644Z,1.60
2022-10-06T04:22:09.356Z,1.60
2022-10-06T04:24:36.673Z,1.65
2022-10-06T04:27:03.527Z,1.35
2022-10-06T04:29:32.176Z,1.42
2022-10-06T04:31:58.977Z,1.40
2022-10-06T04:34:25.795Z,2.92
2022-10-06T04:36:53.124Z,1.23
2022-10-06T04:39:19.818Z,1.92
2022-10-06T04:41:46.587Z,1.58
2022-10-06T04:44:13.991Z,2.25
2022-10-06T04:46:44.189Z,1.80
2022-10-06T04:49:18.998Z,1.40
2022-10-06T04:51:47.634Z,1.70
2022-10-06T04:54:14.383Z,1.58
2022-10-06T04:56:41.186Z,1.65
2022-10-06T04:59:08.530Z,1.58
2022-10-06T05:01:36.540Z,1.10
2022-10-06T05:04:05.778Z,2.33
2022-10-06T05:06:34.739Z,2.00
2022-10-06T05:09:03.958Z,1.60
2022-10-06T05:11:30.826Z,2.38
2022-10-06T05:13:58.562Z,1.73
2022-10-06T05:16:26.910Z,2.05
2022-10-06T05:18:54.003Z,2.08
2022-10-06T05:21:24.161Z,1.83
2022-10-06T05:23:50.931Z,1.55
2022-10-06T05:26:19.177Z,2.20
2022-10-06T05:28:46.614Z,1.40
2022-10-06T05:31:16.145Z,1.98
2022-10-06T05:33:43.259Z,1.40
2022-10-06T05:36:12.943Z,1.42
2022-10-06T05:41:10.283Z,1.58
2022-10-06T05:43:38.210Z,1.40
2022-10-06T05:46:06.463Z,1.90
2022-10-06T05:48:33.353Z,1.55
2022-10-06T05:51:02.808Z,1.70
2022-10-06T05:53:30.755Z,2.00
2022-10-06T05:56:07.194Z,1.30
2022-10-06T05:58:35.910Z,1.35
2022-10-06T06:01:07.386Z,1.90
2022-10-06T06:03:34.761Z,1.98
2022-10-06T06:06:01.626Z,1.38
2022-10-06T06:08:28.745Z,2.15
2022-10-06T06:11:05.789Z,1.48
2022-10-06T06:13:32.705Z,1.55
2022-10-06T06:16:00.270Z,2.10
2022-10-06T06:18:27.795Z,2.13
2022-10-06T06:20:58.477Z,2.13
2022-10-06T06:23:30.799Z,2.72
2022-10-06T06:26:02.280Z,2.03
2022-10-06T06:28:32.024Z,2.10
2022-10-06T06:31:00.474Z,2.13
2022-10-06T06:33:27.214Z,2.10
2022-10-06T06:35:54.538Z,2.45
2022-10-06T06:38:21.308Z,3.05
2022-10-06T06:40:48.017Z,2.00
2022-10-06T06:43:15.392Z,2.67
2022-10-06T06:45:43.499Z,2.20
2022-10-06T06:48:13.801Z,2.20
2022-10-06T06:50:41.283Z,2.40
2022-10-06T06:53:08.231Z,2.55
2022-10-06T06:55:35.975Z,2.20
2022-10-06T06:58:03.297Z,2.33
2022-10-06T07:00:35.277Z,2.80
2022-10-06T07:03:04.818Z,2.67
2022-10-06T07:05:31.585Z,2.23
2022-10-06T07:07:58.311Z,2.70
2022-10-06T07:10:26.349Z,2.00
2022-10-06T07:12:53.055Z,2.85
2022-10-06T07:15:19.782Z,2.20
2022-10-06T07:17:47.092Z,3.22
2022-10-06T07:20:15.358Z,1.92
2022-10-06T07:22:42.174Z,1.83
2022-10-06T07:25:15.296Z,2.60
2022-10-06T07:27:44.416Z,3.08
2022-10-06T07:30:15.082Z,2.45
2022-10-06T07:32:41.794Z,2.22
2022-10-06T07:35:09.198Z,2.28
2022-10-06T07:37:38.076Z,2.42
2022-10-06T07:40:06.895Z,2.50
2022-10-06T07:42:33.878Z,1.83
2022-10-06T07:45:01.203Z,2.42
2022-10-06T07:47:27.903Z,2.38
2022-10-06T07:49:54.622Z,2.90
2022-10-06T07:52:21.960Z,1.65
2022-10-06T07:54:50.027Z,3.05
2022-10-06T07:57:16.766Z,2.30
2022-10-06T07:59:44.114Z,2.15
2022-10-06T08:02:10.926Z,2.45
2022-10-06T08:04:37.775Z,2.25
2022-10-06T08:07:05.084Z,2.97
2022-10-06T08:09:31.858Z,2.17
2022-10-06T08:11:59.904Z,1.85
2022-10-06T08:14:27.228Z,2.00
2022-10-06T08:16:53.943Z,1.85
2022-10-06T08:19:21.300Z,2.28
2022-10-06T08:21:48.598Z,1.67
2022-10-06T08:24:15.315Z,2.28
2022-10-06T08:26:42.042Z,1.60
2022-10-06T08:29:10.710Z,1.92
2022-10-06T08:31:37.504Z,2.00
2022-10-06T08:34:06.653Z,1.50
2022-10-06T08:36:37.374Z,1.50
2022-10-06T08:39:04.120Z,2.95
2022-10-06T08:41:39.077Z,1.80
2022-10-06T08:44:19.350Z,2.15
2022-10-06T08:46:52.635Z,1.67
2022-10-06T08:49:23.114Z,1.52
2022-10-06T08:51:56.815Z,1.90
2022-10-06T08:54:32.100Z,1.70
2022-10-06T08:57:06.386Z,2.00
2022-10-06T08:59:36.443Z,1.77
2022-10-06T09:02:13.826Z,1.38
2022-10-06T09:04:41.193Z,1.60
2022-10-06T09:07:14.662Z,1.42
2022-10-06T09:09:51.709Z,2.63
2022-10-06T09:12:26.834Z,2.30
2022-10-06T09:15:10.365Z,1.17
2022-10-06T09:17:40.431Z,1.95
2022-10-06T09:20:15.789Z,1.35
2022-10-06T09:22:44.306Z,1.40
2022-10-06T09:25:16.608Z,1.00
2022-10-06T09:27:45.690Z,1.13
2022-10-06T09:30:14.724Z,1.30
2022-10-06T09:32:46.552Z,1.67
2022-10-06T09:35:18.367Z,1.60
2022-10-06T09:37:55.551Z,1.92
2022-10-06T09:40:37.687Z,1.60
2022-10-06T09:43:16.649Z,1.40
2022-10-06T09:45:45.497Z,1.77
2022-10-06T09:48:18.997Z,1.30
2022-10-06T09:51:08.109Z,1.48
2022-10-06T09:53:37.653Z,1.40
2022-10-06T09:56:12.941Z,1.25
2022-10-06T09:58:39.755Z,1.70
2022-10-06T10:01:11.604Z,1.25
2022-10-06T10:04:02.064Z,1.50
2022-10-06T10:06:34.087Z,1.55
2022-10-06T10:09:26.709Z,1.70
2022-10-06T10:12:01.554Z,1.17
2022-10-06T10:14:36.702Z,1.10
2022-10-06T10:17:12.627Z,1.45
2022-10-06T10:19:39.467Z,1.60
2022-10-06T10:22:16.661Z,1.48
2022-10-06T10:24:54.383Z,1.13
2022-10-06T10:27:27.042Z,1.02
2022-10-06T10:30:01.925Z,1.02
2022-10-06T10:32:56.575Z,1.40
2022-10-06T10:35:27.174Z,1.30
2022-10-06T10:38:00.466Z,1.90
2022-10-06T10:40:34.960Z,1.20
2022-10-06T10:43:19.686Z,1.00
2022-10-06T10:45:50.425Z,2.05
2022-10-06T10:48:28.241Z,1.50
2022-10-06T10:51:01.954Z,1.75
2022-10-06T10:53:42.649Z,1.05
2022-10-06T10:56:12.403Z,1.50
2022-10-06T10:58:42.132Z,1.52
2022-10-06T11:01:19.556Z,1.48
2022-10-06T11:03:49.790Z,1.25
2022-10-06T11:06:38.331Z,1.27
2022-10-06T11:09:09.587Z,1.85
2022-10-06T11:11:52.454Z,1.35
2022-10-06T11:14:30.973Z,1.40
2022-10-06T11:17:06.974Z,1.90
2022-10-06T11:19:47.507Z,1.52
2022-10-06T11:22:25.447Z,1.20
2022-10-06T11:25:01.426Z,1.77
2022-10-06T11:27:40.535Z,1.30
2022-10-06T11:30:14.438Z,0.98
2022-10-06T11:32:51.766Z,1.05
2022-10-06T11:35:22.072Z,1.25
2022-10-06T11:37:55.635Z,1.20
2022-10-06T11:40:47.823Z,1.40
2022-10-06T11:43:23.342Z,1.85
2022-10-06T11:45:58.281Z,1.35
2022-10-06T11:48:27.822Z,1.70
2022-10-06T11:51:15.230Z,1.05
2022-10-06T11:53:42.027Z,1.60
2022-10-06T11:56:37.426Z,1.52
2022-10-06T11:59:25.914Z,1.45
2022-10-06T12:01:55.984Z,1.33
2022-10-06T12:04:24.649Z,1.20
2022-10-06T12:10:31.239Z,1.40
2022-10-06T12:13:31.762Z,1.35
2022-10-06T12:19:18.903Z,0.63
2022-10-06T12:21:53.512Z,1.15
2022-10-06T12:24:30.493Z,1.10
2022-10-06T12:27:18.857Z,0.90
2022-10-06T12:29:51.363Z,1.45
2022-10-06T12:32:32.936Z,1.58
2022-10-06T12:35:14.867Z,1.42
2022-10-06T12:37:50.138Z,1.30
2022-10-06T12:40:50.180Z,1.30
2022-10-06T12:43:41.350Z,1.17
2022-10-06T12:46:15.991Z,1.30
2022-10-06T12:48:53.499Z,1.10
2022-10-06T12:51:29.626Z,0.80
2022-10-06T12:54:05.586Z,0.85
2022-10-06T12:56:36.231Z,0.85
2022-10-06T12:59:17.768Z,1.05
2022-10-06T13:01:44.845Z,1.20
2022-10-06T13:04:30.646Z,1.42
2022-10-06T13:06:57.932Z,0.90
2022-10-06T13:09:25.259Z,1.07
2022-10-06T13:11:53.444Z,1.10
2022-10-06T13:14:20.156Z,1.15
2022-10-06T13:16:48.558Z,0.77
2022-10-06T13:19:18.407Z,0.98
2022-10-06T13:21:46.337Z,0.95
2022-10-06T13:24:17.056Z,1.10
2022-10-06T13:26:44.707Z,1.02
2022-10-06T13:29:21.011Z,1.00
2022-10-06T13:31:52.854Z,0.80
2022-10-06T13:34:28.667Z,1.25
2022-10-06T13:36:58.066Z,0.93
2022-10-06T13:41:54.242Z,0.70
2022-10-06T13:44:35.167Z,1.27
2022-10-06T13:47:05.536Z,0.88
2022-10-06T13:49:36.342Z,1.70
2022-10-06T13:52:10.017Z,1.10
2022-10-06T13:54:45.315Z,0.80
2022-10-06T13:57:34.943Z,1.17
2022-10-06T14:00:06.363Z,1.00
2022-10-06T14:02:33.558Z,1.10
2022-10-06T14:05:25.843Z,0.90
2022-10-06T14:07:56.907Z,1.40
2022-10-06T14:13:01.103Z,1.17
2022-10-06T14:15:33.637Z,1.55
2022-10-06T14:18:03.743Z,1.02
2022-10-06T14:20:37.212Z,1.00
2022-10-06T14:23:32.058Z,0.90
2022-10-06T14:25:58.912Z,0.90
2022-10-06T14:28:26.361Z,1.45
2022-10-06T14:30:54.604Z,0.93
2022-10-06T14:33:21.489Z,0.90
2022-10-06T14:35:48.883Z,0.85
2022-10-06T14:38:15.606Z,1.20
2022-10-06T14:40:42.599Z,0.93
2022-10-06T14:43:10.715Z,1.20
2022-10-06T14:45:40.485Z,1.15
2022-10-06T14:48:08.786Z,1.00
2022-10-06T14:50:36.406Z,1.55
2022-10-06T14:53:03.404Z,1.00
2022-10-06T14:55:30.403Z,1.38
2022-10-06T14:57:58.120Z,0.95
2022-10-06T15:00:25.886Z,1.05
2022-10-06T15:02:52.715Z,1.00
2022-10-06T15:05:21.431Z,1.48
2022-10-06T15:07:48.146Z,1.10
2022-10-06T15:10:15.003Z,1.20
2022-10-06T15:12:42.312Z,1.50
2022-10-06T15:15:09.818Z,1.77
2022-10-06T15:17:36.562Z,1.13
2022-10-06T15:20:04.374Z,1.05
2022-10-06T15:22:32.495Z,1.73
2022-10-06T15:24:59.316Z,1.65
2022-10-06T15:27:26.627Z,1.00
2022-10-06T15:29:53.413Z,1.27
2022-10-06T15:32:20.139Z,1.08
2022-10-06T15:34:51.254Z,1.10
2022-10-06T15:37:17.998Z,1.15
2022-10-06T15:39:46.074Z,1.20
2022-10-06T15:42:13.414Z,0.80
2022-10-06T15:44:40.166Z,1.20
2022-10-06T15:47:07.374Z,0.80
2022-10-06T15:49:34.729Z,0.90
2022-10-06T15:52:03.443Z,0.90
2022-10-06T15:54:32.082Z,0.70
2022-10-06T16:01:57.536Z,0.80
2022-10-06T16:06:52.284Z,1.20
2022-10-06T16:09:18.985Z,0.95
2022-10-06T16:11:47.315Z,1.13
2022-10-06T16:14:15.913Z,1.08
2022-10-06T16:16:43.939Z,1.85
2022-10-06T16:19:11.790Z,0.90
2022-10-06T16:21:39.482Z,1.50
2022-10-06T16:24:06.651Z,0.80
2022-10-06T16:26:34.649Z,1.08
2022-10-06T16:29:01.387Z,1.05
2022-10-06T16:31:29.490Z,1.10
2022-10-06T16:33:56.959Z,1.27
2022-10-06T16:36:23.722Z,1.40
2022-10-06T16:38:51.459Z,1.17
2022-10-06T16:41:19.437Z,1.90
2022-10-06T16:43:47.785Z,1.20
2022-10-06T16:46:16.111Z,1.10
2022-10-06T16:51:17.490Z,0.90
2022-10-06T16:53:46.975Z,1.23
2022-10-06T16:56:15.459Z,1.42
2022-10-06T16:58:43.771Z,1.48
2022-10-06T17:03:39.332Z,1.38
2022-10-06T17:06:10.102Z,1.33
2022-10-06T17:08:38.590Z,1.40
2022-10-06T17:11:09.343Z,1.40
2022-10-06T17:13:37.732Z,1.58
2022-10-06T17:18:33.771Z,1.60
2022-10-06T17:21:02.096Z,1.80
2022-10-06T17:23:34.697Z,1.38
2022-10-06T17:26:11.679Z,1.75
2022-10-06T17:28:39.075Z,1.60
2022-10-06T17:31:06.151Z,2.10
2022-10-06T17:33:35.318Z,1.60
2022-10-06T17:36:04.621Z,1.30
2022-10-06T17:38:31.895Z,1.45
2022-10-06T17:41:00.087Z,1.40
2022-10-06T17:43:27.449Z,1.75
2022-10-06T17:45:54.200Z,2.00
2022-10-06T17:48:25.847Z,2.10
2022-10-06T17:50:57.530Z,2.05
2022-10-06T17:53:24.246Z,2.03
2022-10-06T17:55:50.959Z,2.70
2022-10-06T17:58:19.676Z,3.65
2022-10-06T18:00:46.442Z,4.73
2022-10-06T18:03:13.227Z,3.80
2022-10-06T18:05:40.596Z,5.13
2022-10-06T18:08:07.335Z,3.80
2022-10-06T18:10:34.073Z,4.55
2022-10-06T18:13:01.368Z,6.35
2022-10-06T18:15:29.415Z,5.82
2022-10-06T18:17:56.127Z,5.57
2022-10-06T18:20:23.440Z,6.55
2022-10-06T18:22:50.156Z,5.28
2022-10-06T18:25:16.869Z,2.80
2022-10-06T18:27:46.148Z,2.40
2022-10-06T18:30:13.316Z,4.57
2022-10-06T18:35:00.627Z,6.97
2022-10-06T18:38:15.473Z,3.60
2022-10-06T18:40:44.311Z,2.78
2022-10-06T18:43:11.034Z,3.10
2022-10-06T18:45:39.561Z,4.35
2022-10-06T18:48:09.717Z,8.82
2022-10-06T18:50:36.532Z,10.15
2022-10-06T18:53:03.369Z,8.68
2022-10-06T18:55:30.753Z,9.65
2022-10-06T18:57:57.503Z,6.85
2022-10-06T19:00:24.218Z,5.40
2022-10-06T19:02:51.610Z,6.53
2022-10-06T19:05:19.681Z,5.30
2022-10-06T19:07:46.433Z,5.23
2022-10-06T19:10:13.898Z,5.97
2022-10-06T19:12:40.619Z,7.63
2022-10-06T19:15:07.765Z,5.57
2022-10-06T19:17:35.100Z,5.30
2022-10-06T19:20:01.801Z,4.32
2022-10-06T19:22:29.877Z,4.90
2022-10-06T19:24:57.234Z,5.28
2022-10-06T19:27:25.031Z,4.38
2022-10-06T19:29:56.270Z,5.22
2022-10-06T19:32:25.742Z,4.90
2022-10-06T19:34:52.763Z,3.80
2022-10-06T19:37:19.721Z,4.85
2022-10-06T19:39:48.379Z,4.97
2022-10-06T19:42:17.619Z,4.35
2022-10-06T19:44:46.147Z,3.90
2022-10-06T19:47:14.801Z,4.20
2022-10-06T19:49:41.896Z,4.50
2022-10-06T19:52:10.496Z,3.88
2022-10-06T19:54:37.842Z,4.00
2022-10-06T19:57:06.293Z,3.47
2022-10-06T19:59:33.370Z,3.60
2022-10-06T20:02:00.726Z,5.45
2022-10-06T20:04:27.544Z,4.63
2022-10-06T20:06:54.374Z,4.00
2022-10-06T20:09:23.206Z,3.50
2022-10-06T20:11:51.244Z,3.85
2022-10-06T20:14:21.479Z,3.30
2022-10-06T20:16:51.047Z,3.97
2022-10-06T20:21:45.864Z,2.60
2022-10-06T20:24:14.818Z,3.00
2022-10-06T20:26:42.649Z,3.35
2022-10-06T20:29:10.907Z,2.85
2022-10-06T20:31:41.097Z,3.40
2022-10-06T20:34:10.504Z,3.65
2022-10-06T20:36:38.821Z,2.50
2022-10-06T20:39:06.953Z,2.65
2022-10-06T20:41:34.087Z,2.40
2022-10-06T20:44:02.881Z,2.50
2022-10-06T20:46:31.259Z,2.77
2022-10-06T20:49:00.275Z,2.70
2022-10-06T20:51:27.891Z,2.60
2022-10-06T20:53:54.613Z,3.47
2022-10-06T20:56:21.329Z,2.97
2022-10-06T20:58:48.653Z,3.72
2022-10-06T21:01:15.883Z,2.90
2022-10-06T21:03:43.875Z,3.70
2022-10-06T21:06:13.491Z,3.50
2022-10-06T21:08:40.967Z,2.80
2022-10-06T21:11:07.703Z,2.90
2022-10-06T21:13:35.075Z,3.08
2022-10-06T21:16:02.338Z,2.92
2022-10-06T21:18:29.108Z,3.10
2022-10-06T21:20:57.463Z,2.72
2022-10-06T21:23:25.669Z,2.65
2022-10-06T21:25:52.423Z,2.67
2022-10-06T21:28:19.822Z,2.63
2022-10-06T21:30:46.639Z,2.40
2022-10-06T21:33:13.386Z,2.50
2022-10-06T21:35:40.736Z,2.50
2022-10-06T21:38:11.380Z,3.05
2022-10-06T21:40:39.464Z,3.00
2022-10-06T21:43:06.799Z,2.72
2022-10-06T21:45:33.551Z,2.80
2022-10-06T21:48:00.294Z,2.60
2022-10-06T21:50:27.650Z,2.95
2022-10-06T21:52:54.379Z,3.00
2022-10-06T21:55:21.115Z,2.80
2022-10-06T21:57:49.806Z,2.67
2022-10-06T22:00:16.663Z,3.00
2022-10-06T22:02:43.432Z,2.42
2022-10-06T22:05:10.797Z,2.80
2022-10-06T22:07:37.539Z,2.80
2022-10-06T22:10:05.103Z,3.10
2022-10-06T22:12:32.468Z,4.00
2022-10-06T22:15:00.579Z,3.13
2022-10-06T22:17:27.312Z,2.57
2022-10-06T22:19:54.662Z,3.97
2022-10-06T22:22:21.391Z,3.65
2022-10-06T22:24:48.131Z,3.10
2022-10-06T22:27:15.467Z,3.15
2022-10-06T22:29:42.628Z,3.13
2022-10-06T22:32:11.132Z,3.95
2022-10-06T22:34:38.496Z,3.03
2022-10-06T22:37:05.249Z,2.70
2022-10-06T22:39:31.985Z,3.53
2022-10-06T22:41:59.454Z,3.25
2022-10-06T22:44:26.236Z,3.78
2022-10-06T22:46:53.118Z,3.38
2022-10-06T22:49:21.854Z,3.05
2022-10-06T22:51:48.601Z,3.65
2022-10-06T22:54:18.626Z,3.33
2022-10-06T22:56:46.089Z,3.92
2022-10-06T22:59:12.832Z,3.28
2022-10-06T23:01:39.608Z,3.72
2022-10-06T23:04:06.963Z,3.65
2022-10-06T23:06:35.056Z,3.33
2022-10-06T23:09:04.031Z,3.77
2022-10-06T23:11:31.453Z,4.28
2022-10-06T23:13:58.220Z,3.55
2022-10-06T23:16:25.779Z,3.50
2022-10-06T23:18:53.195Z,4.07
2022-10-06T23:21:22.392Z,3.55
2022-10-06T23:23:52.296Z,3.05
2022-10-06T23:26:21.003Z,3.92
2022-10-06T23:28:51.595Z,4.07
2022-10-06T23:31:18.441Z,4.32
2022-10-06T23:33:46.215Z,4.22
2022-10-06T23:36:13.385Z,4.55
2022-10-06T23:38:40.544Z,4.18
2022-10-06T23:41:09.292Z,4.15
2022-10-06T23:43:36.095Z,4.27
2022-10-06T23:46:03.170Z,4.25
2022-10-06T23:48:30.704Z,4.80
2022-10-06T23:50:59.540Z,4.35
2022-10-06T23:53:27.106Z,4.75
2022-10-06T23:55:54.616Z,4.63
2022-10-06T23:58:22.868Z,4.90
